createdAt,value
2023-03-06T00:00:51.820Z,13.45
2023-03-06T00:03:19.939Z,7.50
2023-03-06T00:05:49.208Z,9.60
2023-03-06T00:08:17.273Z,9.70
2023-03-06T00:10:45.056Z,10.40
2023-03-06T00:13:15.367Z,10.38
2023-03-06T00:15:44.478Z,8.40
2023-03-06T00:18:12.490Z,10.98
2023-03-06T00:20:41.707Z,9.45
2023-03-06T00:23:09.917Z,11.13
2023-03-06T00:25:38.827Z,8.88
2023-03-06T00:28:06.923Z,10.10
2023-03-06T00:30:34.709Z,11.07
2023-03-06T00:33:03.919Z,12.18
2023-03-06T00:35:31.676Z,9.80
2023-03-06T00:38:00.044Z,8.85
2023-03-06T00:40:28.082Z,14.98
2023-03-06T00:42:55.824Z,8.20
2023-03-06T00:45:23.634Z,11.27
2023-03-06T00:47:51.432Z,9.30
2023-03-06T00:50:20.950Z,10.07
2023-03-06T00:52:49.136Z,10.57
2023-03-06T00:55:17.088Z,10.68
2023-03-06T00:57:44.842Z,9.68
2023-03-06T01:00:14.313Z,9.23
2023-03-06T01:02:42.526Z,10.02
2023-03-06T01:05:12.895Z,10.63
2023-03-06T01:07:42.061Z,12.20
2023-03-06T01:10:11.328Z,9.82
2023-03-06T01:12:39.094Z,11.05
2023-03-06T01:15:08.333Z,9.25
2023-03-06T01:17:36.387Z,11.68
2023-03-06T01:20:05.389Z,16.23
2023-03-06T01:22:33.141Z,12.55
2023-03-06T01:25:02.331Z,12.27
2023-03-06T01:27:30.039Z,12.90
2023-03-06T01:29:57.907Z,17.95
2023-03-06T01:32:25.666Z,11.35
2023-03-06T01:34:53.659Z,9.93
2023-03-06T01:37:21.371Z,12.68
2023-03-06T01:39:49.149Z,10.80
2023-03-06T01:42:18.202Z,12.13
2023-03-06T01:45:02.957Z,11.45
2023-03-06T01:47:30.743Z,9.05
2023-03-06T01:50:00.086Z,9.95
2023-03-06T01:52:32.357Z,12.63
2023-03-06T01:55:03.684Z,12.07
2023-03-06T01:57:36.320Z,11.48
2023-03-06T02:00:09.339Z,10.85
2023-03-06T02:05:07.187Z,14.00
2023-03-06T02:07:35.723Z,12.38
2023-03-06T02:10:04.003Z,10.60
2023-03-06T02:12:33.273Z,12.77
2023-03-06T02:15:01.231Z,9.73
2023-03-06T02:17:29.222Z,11.23
2023-03-06T02:20:03.885Z,12.13
2023-03-06T02:22:37.369Z,10.73
2023-03-06T02:25:10.606Z,11.02
2023-03-06T02:27:40.076Z,11.52
2023-03-06T02:30:10.054Z,13.65
2023-03-06T02:32:37.760Z,11.68
2023-03-06T02:35:07.214Z,14.18
2023-03-06T02:37:34.975Z,12.23
2023-03-06T02:40:12.241Z,10.85
2023-03-06T02:42:47.204Z,11.10
2023-03-06T02:45:18.362Z,11.10
2023-03-06T02:47:46.045Z,11.27
2023-03-06T02:50:13.936Z,11.77
2023-03-06T02:52:41.613Z,11.38
2023-03-06T02:55:10.413Z,13.18
2023-03-06T02:57:38.218Z,14.02
2023-03-06T03:00:09.214Z,12.60
2023-03-06T03:02:37.165Z,13.50
2023-03-06T03:05:05.718Z,12.35
2023-03-06T03:07:33.489Z,12.15
2023-03-06T03:10:01.217Z,13.07
2023-03-06T03:12:29.252Z,12.98
2023-03-06T03:14:57.682Z,11.43
2023-03-06T03:17:26.820Z,14.77
2023-03-06T03:19:54.524Z,13.63
2023-03-06T03:22:22.356Z,11.70
2023-03-06T03:24:50.195Z,14.32
2023-03-06T03:27:18.098Z,12.20
2023-03-06T03:29:45.813Z,10.10
2023-03-06T03:32:13.561Z,11.38
2023-03-06T03:34:42.693Z,11.98
2023-03-06T03:37:10.536Z,12.70
2023-03-06T03:39:38.223Z,10.23
2023-03-06T03:42:06.259Z,11.15
2023-03-06T03:44:33.939Z,12.60
2023-03-06T03:47:01.690Z,13.50
2023-03-06T03:49:29.467Z,11.50
2023-03-06T03:51:58.568Z,10.82
2023-03-06T03:54:26.416Z,12.82
2023-03-06T03:56:54.194Z,12.07
2023-03-06T03:59:21.968Z,13.43
2023-03-06T04:01:49.839Z,18.30
2023-03-06T04:04:17.565Z,12.82
2023-03-06T04:06:45.313Z,15.20
2023-03-06T04:09:14.946Z,14.05
2023-03-06T04:11:42.777Z,12.65
2023-03-06T04:14:10.500Z,14.00
2023-03-06T04:16:38.293Z,14.23
2023-03-06T04:19:05.999Z,14.05
2023-03-06T04:21:33.713Z,12.35
2023-03-06T04:24:01.465Z,15.18
2023-03-06T04:26:30.520Z,16.33
2023-03-06T04:28:58.585Z,16.08
2023-03-06T04:31:26.365Z,13.88
2023-03-06T04:33:54.237Z,14.23
2023-03-06T04:36:28.007Z,14.18
2023-03-06T04:38:56.226Z,14.57
2023-03-06T04:41:24.299Z,14.80
2023-03-06T04:43:53.634Z,14.60
2023-03-06T04:46:21.358Z,14.50
2023-03-06T04:48:49.103Z,17.42
2023-03-06T04:51:16.944Z,15.82
2023-03-06T04:53:44.670Z,14.27
2023-03-06T04:56:12.433Z,16.35
2023-03-06T04:58:40.282Z,14.38
2023-03-06T05:01:09.657Z,17.80
2023-03-06T05:03:37.478Z,16.50
2023-03-06T05:06:05.974Z,16.55
2023-03-06T05:08:33.972Z,15.73
2023-03-06T05:11:03.122Z,16.35
2023-03-06T05:13:31.110Z,15.82
2023-03-06T05:16:02.916Z,15.73
2023-03-06T05:18:32.775Z,15.25
2023-03-06T05:21:00.668Z,15.57
2023-03-06T05:23:29.178Z,17.88
2023-03-06T05:25:57.247Z,17.17
2023-03-06T05:28:25.977Z,14.25
2023-03-06T05:30:53.973Z,17.77
2023-03-06T05:33:21.660Z,14.07
2023-03-06T05:35:51.010Z,15.07
2023-03-06T05:38:19.200Z,14.75
2023-03-06T05:40:47.190Z,13.98
2023-03-06T05:43:14.893Z,16.73
2023-03-06T05:45:42.810Z,17.98
2023-03-06T05:48:13.116Z,16.70
2023-03-06T05:50:41.259Z,13.57
2023-03-06T05:53:10.346Z,17.70
2023-03-06T05:55:38.054Z,15.13
2023-03-06T05:58:05.852Z,16.88
2023-03-06T06:00:33.544Z,14.98
2023-03-06T06:03:02.154Z,16.92
2023-03-06T06:05:30.014Z,17.30
2023-03-06T06:07:57.784Z,15.25
2023-03-06T06:10:26.910Z,14.60
2023-03-06T06:12:54.725Z,13.23
2023-03-06T06:15:22.577Z,16.35
2023-03-06T06:17:50.327Z,14.73
2023-03-06T06:20:18.381Z,13.75
2023-03-06T06:22:46.250Z,14.10
2023-03-06T06:25:14.543Z,14.98
2023-03-06T06:27:43.770Z,15.05
2023-03-06T06:30:13.743Z,18.98
2023-03-06T06:32:41.564Z,18.65
2023-03-06T06:35:11.030Z,13.73
2023-03-06T06:37:38.753Z,19.80
2023-03-06T06:40:08.033Z,13.57
2023-03-06T06:42:39.934Z,16.67
2023-03-06T06:45:11.173Z,14.95
2023-03-06T06:47:41.336Z,16.30
2023-03-06T06:50:11.706Z,14.57
2023-03-06T06:52:39.439Z,16.75
2023-03-06T06:55:08.131Z,14.98
2023-03-06T06:57:35.968Z,14.95
2023-03-06T07:00:04.120Z,16.00
2023-03-06T07:02:33.351Z,15.15
2023-03-06T07:05:04.958Z,16.45
2023-03-06T07:07:35.815Z,15.40
2023-03-06T07:10:05.531Z,19.00
2023-03-06T07:12:35.027Z,15.32
2023-03-06T07:15:02.958Z,13.27
2023-03-06T07:17:31.034Z,21.35
2023-03-06T07:20:00.642Z,19.52
2023-03-06T07:22:31.948Z,15.25
2023-03-06T07:25:04.332Z,14.68
2023-03-06T07:27:32.198Z,16.42
2023-03-06T07:30:00.050Z,23.83
2023-03-06T07:32:28.037Z,22.73
2023-03-06T07:35:12.929Z,15.25
2023-03-06T07:37:45.298Z,17.77
2023-03-06T07:40:13.609Z,14.20
2023-03-06T07:42:41.408Z,16.70
2023-03-06T07:45:09.938Z,15.63
2023-03-06T07:47:37.713Z,15.57
2023-03-06T07:50:07.291Z,20.15
2023-03-06T07:52:35.320Z,16.42
2023-03-06T07:55:05.116Z,16.23
2023-03-06T07:57:32.911Z,16.27
2023-03-06T08:00:00.786Z,18.83
2023-03-06T08:02:28.557Z,14.07
2023-03-06T08:04:56.674Z,15.65
2023-03-06T08:07:24.814Z,16.98
2023-03-06T08:09:52.591Z,14.32
2023-03-06T08:12:21.754Z,17.30
2023-03-06T08:14:49.545Z,16.67
2023-03-06T08:17:17.356Z,14.93
2023-03-06T08:19:45.120Z,14.45
2023-03-06T08:22:13.984Z,21.35
2023-03-06T08:24:42.650Z,18.25
2023-03-06T08:27:10.494Z,14.10
2023-03-06T08:29:39.806Z,20.90
2023-03-06T08:32:07.902Z,13.13
2023-03-06T08:34:35.746Z,12.88
2023-03-06T08:37:03.683Z,14.80
2023-03-06T08:39:31.526Z,15.32
2023-03-06T08:41:59.298Z,14.23
2023-03-06T08:44:26.990Z,16.40
2023-03-06T08:46:57.173Z,13.07
2023-03-06T08:49:24.927Z,13.18
2023-03-06T08:51:52.742Z,12.32
2023-03-06T08:54:20.540Z,15.25
2023-03-06T08:56:48.348Z,13.00
2023-03-06T08:59:16.125Z,16.10
2023-03-06T09:01:45.189Z,17.05
2023-03-06T09:04:14.506Z,14.75
2023-03-06T09:06:44.094Z,16.55
2023-03-06T09:09:12.771Z,16.40
2023-03-06T09:11:41.161Z,14.60
2023-03-06T09:14:09.048Z,15.30
2023-03-06T09:16:36.849Z,14.55
2023-03-06T09:19:04.617Z,14.35
2023-03-06T09:21:34.180Z,15.57
2023-03-06T09:24:02.130Z,18.52
2023-03-06T09:26:43.496Z,16.08
2023-03-06T09:31:40.672Z,14.20
2023-03-06T09:34:08.442Z,19.80
2023-03-06T09:36:49.509Z,18.88
2023-03-06T09:39:23.988Z,15.45
2023-03-06T09:41:52.633Z,15.50
2023-03-06T09:44:23.944Z,16.40
2023-03-06T09:47:23.484Z,15.95
2023-03-06T09:50:04.944Z,23.10
2023-03-06T09:52:40.332Z,16.27
2023-03-06T09:55:13.563Z,15.93
2023-03-06T09:57:50.505Z,14.38
2023-03-06T10:00:24.805Z,14.18
2023-03-06T10:03:01.850Z,17.42
2023-03-06T10:05:37.355Z,14.15
2023-03-06T10:08:17.880Z,20.45
2023-03-06T10:10:51.631Z,13.85
2023-03-06T10:13:26.087Z,34.15
2023-03-06T10:15:59.900Z,17.60
2023-03-06T10:18:27.877Z,16.02
2023-03-06T10:21:13.439Z,17.67
2023-03-06T10:23:54.243Z,14.38
2023-03-06T10:26:26.477Z,14.45
2023-03-06T10:29:17.049Z,17.77
2023-03-06T10:31:49.254Z,17.05
2023-03-06T10:34:23.489Z,17.10
2023-03-06T10:36:51.586Z,19.13
2023-03-06T10:39:23.006Z,20.13
2023-03-06T10:41:51.424Z,18.17
2023-03-06T10:44:22.286Z,18.25
2023-03-06T10:46:52.576Z,17.15
2023-03-06T10:49:33.120Z,17.95
2023-03-06T10:52:03.953Z,23.20
2023-03-06T10:54:35.344Z,18.10
2023-03-06T10:57:25.790Z,18.15
2023-03-06T10:59:55.627Z,18.40
2023-03-06T11:02:31.413Z,17.42
2023-03-06T11:05:01.589Z,15.50
2023-03-06T11:07:30.735Z,20.00
2023-03-06T11:10:09.029Z,18.75
2023-03-06T11:12:39.502Z,17.05
2023-03-06T11:15:23.271Z,16.90
2023-03-06T11:17:54.794Z,15.95
2023-03-06T11:20:24.998Z,15.50
2023-03-06T11:22:56.831Z,13.98
2023-03-06T11:25:31.988Z,26.27
2023-03-06T11:28:03.462Z,32.78
2023-03-06T11:30:40.398Z,26.85
2023-03-06T11:33:19.996Z,27.13
2023-03-06T11:35:55.430Z,21.00
2023-03-06T11:38:32.242Z,24.38
2023-03-06T11:41:05.772Z,18.55
2023-03-06T11:43:40.887Z,23.63
2023-03-06T11:46:18.444Z,21.73
2023-03-06T11:48:53.077Z,22.13
2023-03-06T11:51:24.344Z,18.55
2023-03-06T11:53:53.084Z,20.17
2023-03-06T11:56:32.554Z,18.10
2023-03-06T11:59:36.116Z,16.08
2023-03-06T12:04:42.555Z,15.25
2023-03-06T12:07:22.278Z,14.27
2023-03-06T12:09:57.003Z,16.05
2023-03-06T12:12:43.744Z,13.30
2023-03-06T12:15:29.130Z,13.15
2023-03-06T12:18:11.848Z,12.98
2023-03-06T12:21:00.970Z,12.98
2023-03-06T12:23:45.614Z,13.60
2023-03-06T12:26:35.485Z,13.88
2023-03-06T12:29:17.545Z,12.13
2023-03-06T12:32:02.562Z,11.88
2023-03-06T12:34:47.437Z,12.32
2023-03-06T12:37:26.370Z,12.27
2023-03-06T12:40:10.096Z,11.18
2023-03-06T12:42:57.183Z,12.00
2023-03-06T12:45:33.587Z,10.05
2023-03-06T12:48:02.845Z,10.43
2023-03-06T12:50:32.856Z,7.93
2023-03-06T12:53:04.928Z,9.82
2023-03-06T12:55:40.888Z,10.13
2023-03-06T12:58:51.594Z,13.15
2023-03-06T13:01:49.456Z,10.75
2023-03-06T13:05:00.943Z,11.38
2023-03-06T13:07:39.122Z,11.13
2023-03-06T13:10:17.228Z,15.70
2023-03-06T13:12:57.423Z,10.15
2023-03-06T13:15:39.239Z,12.93
2023-03-06T13:18:40.574Z,9.95
2023-03-06T13:22:00.003Z,14.32
2023-03-06T13:24:29.084Z,8.43
2023-03-06T13:27:05.969Z,9.85
2023-03-06T13:30:21.451Z,11.48
2023-03-06T13:32:52.661Z,10.50
2023-03-06T13:35:49.746Z,13.73
2023-03-06T13:38:35.343Z,8.18
2023-03-06T13:41:35.550Z,9.15
2023-03-06T13:44:30.729Z,7.22
2023-03-06T13:47:01.160Z,9.13
2023-03-06T13:49:30.515Z,8.65
2023-03-06T13:52:09.584Z,7.07
2023-03-06T13:54:51.567Z,7.15
2023-03-06T13:57:38.195Z,5.20
2023-03-06T14:00:29.772Z,6.78
2023-03-06T14:03:35.864Z,5.55
2023-03-06T14:06:56.641Z,4.97
2023-03-06T14:09:29.111Z,5.32
2023-03-06T14:12:03.355Z,6.25
2023-03-06T14:14:40.117Z,6.20
2023-03-06T14:17:16.168Z,6.68
2023-03-06T14:19:44.239Z,6.90
2023-03-06T14:22:18.963Z,16.05
2023-03-06T14:24:57.475Z,10.15
2023-03-06T14:27:43.023Z,11.85
2023-03-06T14:30:20.944Z,6.45
2023-03-06T14:32:50.218Z,8.20
2023-03-06T14:35:35.731Z,8.52
2023-03-06T14:38:06.731Z,13.02
2023-03-06T14:40:37.231Z,8.60
2023-03-06T14:43:14.633Z,9.30
2023-03-06T14:45:56.894Z,13.30
2023-03-06T14:48:26.736Z,12.47
2023-03-06T14:50:56.252Z,13.55
2023-03-06T14:53:28.341Z,14.25
2023-03-06T14:55:58.959Z,11.43
2023-03-06T14:58:36.532Z,11.80
2023-03-06T15:01:07.765Z,14.38
2023-03-06T15:03:46.293Z,12.27
2023-03-06T15:06:19.087Z,14.02
2023-03-06T15:08:50.577Z,18.13
2023-03-06T15:11:18.336Z,14.70
2023-03-06T15:14:01.822Z,15.55
2023-03-06T15:16:31.273Z,14.57
2023-03-06T15:19:00.934Z,19.10
2023-03-06T15:21:31.242Z,15.52
2023-03-06T15:23:59.649Z,15.27
2023-03-06T15:26:31.740Z,17.17
2023-03-06T15:29:09.454Z,16.42
2023-03-06T15:31:39.070Z,16.10
2023-03-06T15:34:23.352Z,14.77
2023-03-06T15:36:55.207Z,15.65
2023-03-06T15:39:37.927Z,14.23
2023-03-06T15:42:18.183Z,18.52
2023-03-06T15:44:51.412Z,17.02
2023-03-06T15:47:19.238Z,18.42
2023-03-06T15:49:49.008Z,15.18
2023-03-06T15:52:16.862Z,14.93
2023-03-06T15:54:44.790Z,17.77
2023-03-06T15:57:21.454Z,17.58
2023-03-06T15:59:51.774Z,13.48
2023-03-06T16:02:21.321Z,14.50
2023-03-06T16:04:49.618Z,16.80
2023-03-06T16:07:18.870Z,14.98
2023-03-06T16:09:46.666Z,16.33
2023-03-06T16:12:19.846Z,18.05
2023-03-06T16:14:48.832Z,18.38
2023-03-06T16:17:18.749Z,18.38
2023-03-06T16:19:46.594Z,17.38
2023-03-06T16:22:14.825Z,17.33
2023-03-06T16:24:43.292Z,15.93
2023-03-06T16:27:17.672Z,18.92
2023-03-06T16:29:45.464Z,19.15
2023-03-06T16:32:13.405Z,23.08
2023-03-06T16:34:42.657Z,16.25
2023-03-06T16:37:13.905Z,16.33
2023-03-06T16:39:41.822Z,15.93
2023-03-06T16:42:09.768Z,16.30
2023-03-06T16:44:37.529Z,16.42
2023-03-06T16:47:05.865Z,16.45
2023-03-06T16:49:33.732Z,14.70
2023-03-06T16:52:04.513Z,17.63
2023-03-06T16:54:32.455Z,14.55
2023-03-06T16:57:00.215Z,14.02
2023-03-06T16:59:28.102Z,15.13
2023-03-06T17:01:55.924Z,11.70
2023-03-06T17:04:23.726Z,12.15
2023-03-06T17:06:52.884Z,16.83
2023-03-06T17:09:22.043Z,12.73
2023-03-06T17:11:49.935Z,14.57
2023-03-06T17:14:17.689Z,13.35
2023-03-06T17:16:46.401Z,13.82
2023-03-06T17:19:15.356Z,11.95
2023-03-06T17:21:43.785Z,13.35
2023-03-06T17:24:11.558Z,14.45
2023-03-06T17:26:40.721Z,15.48
2023-03-06T17:29:09.284Z,19.17
2023-03-06T17:31:37.072Z,14.82
2023-03-06T17:34:05.117Z,15.73
2023-03-06T17:36:33.666Z,20.13
2023-03-06T17:39:03.302Z,17.73
2023-03-06T17:41:32.978Z,17.40
2023-03-06T17:44:02.718Z,17.58
2023-03-06T17:46:31.855Z,16.77
2023-03-06T17:48:59.714Z,15.27
2023-03-06T17:51:27.731Z,17.73
2023-03-06T17:53:55.728Z,19.02
2023-03-06T17:56:23.483Z,21.45
2023-03-06T17:58:51.190Z,20.60
2023-03-06T18:01:22.720Z,19.85
2023-03-06T18:03:52.053Z,16.35
2023-03-06T18:06:22.168Z,16.65
2023-03-06T18:08:52.853Z,16.13
2023-03-06T18:11:21.811Z,18.15
2023-03-06T18:13:50.118Z,17.65
2023-03-06T18:16:22.892Z,19.02
2023-03-06T18:18:52.838Z,19.45
2023-03-06T18:21:21.267Z,16.23
2023-03-06T18:23:49.299Z,17.85
2023-03-06T18:26:19.053Z,19.13
2023-03-06T18:28:48.742Z,18.55
2023-03-06T18:31:17.556Z,18.70
2023-03-06T18:33:48.997Z,20.08
2023-03-06T18:36:17.298Z,21.27
2023-03-06T18:38:45.701Z,22.98
2023-03-06T18:41:14.578Z,19.33
2023-03-06T18:43:42.454Z,18.42
2023-03-06T18:46:10.399Z,20.45
2023-03-06T18:48:39.158Z,18.00
2023-03-06T18:51:09.889Z,16.05
2023-03-06T18:53:37.915Z,17.88
2023-03-06T18:56:06.380Z,18.83
2023-03-06T18:58:34.320Z,20.10
2023-03-06T19:01:06.909Z,22.45
2023-03-06T19:03:35.048Z,17.15
2023-03-06T19:06:05.826Z,18.52
2023-03-06T19:08:35.631Z,18.80
2023-03-06T19:11:04.819Z,17.77
2023-03-06T19:13:33.103Z,17.05
2023-03-06T19:16:01.583Z,17.27
2023-03-06T19:18:30.232Z,20.88
2023-03-06T19:21:08.524Z,18.05
2023-03-06T19:23:37.992Z,19.67
2023-03-06T19:26:07.463Z,19.73
2023-03-06T19:28:36.066Z,20.30
2023-03-06T19:31:09.252Z,21.25
2023-03-06T19:33:37.913Z,18.77
2023-03-06T19:36:07.031Z,18.60
2023-03-06T19:38:35.046Z,20.45
2023-03-06T19:41:04.308Z,18.95
2023-03-06T19:43:32.333Z,20.25
2023-03-06T19:46:03.687Z,16.38
2023-03-06T19:48:31.485Z,19.88
2023-03-06T19:51:04.460Z,18.83
2023-03-06T19:56:06.562Z,19.27
2023-03-06T19:58:34.954Z,18.88
2023-03-06T20:01:07.331Z,17.98
2023-03-06T20:03:35.130Z,21.15
2023-03-06T20:06:06.195Z,21.98
2023-03-06T20:08:34.066Z,17.88
2023-03-06T20:11:01.829Z,20.83
2023-03-06T20:13:31.118Z,20.15
2023-03-06T20:16:02.837Z,19.27
2023-03-06T20:18:30.633Z,21.20
2023-03-06T20:20:59.506Z,20.30
2023-03-06T20:23:27.550Z,21.13
2023-03-06T20:25:55.406Z,18.65
2023-03-06T20:28:23.901Z,19.02
2023-03-06T20:30:53.105Z,22.58
2023-03-06T20:33:22.269Z,24.77
2023-03-06T20:35:50.214Z,20.60
2023-03-06T20:38:17.998Z,21.50
2023-03-06T20:40:45.863Z,18.50
2023-03-06T20:43:13.579Z,18.25
2023-03-06T20:45:41.278Z,18.50
2023-03-06T20:48:10.424Z,21.98
2023-03-06T20:50:38.192Z,18.60
2023-03-06T20:53:05.925Z,21.63
2023-03-06T20:55:37.509Z,19.40
2023-03-06T20:58:05.245Z,20.65
2023-03-06T21:00:33.099Z,18.85
2023-03-06T21:03:00.889Z,20.67
2023-03-06T21:05:30.110Z,22.10
2023-03-06T21:07:57.918Z,20.38
2023-03-06T21:10:25.715Z,22.52
2023-03-06T21:12:53.502Z,21.38
2023-03-06T21:15:21.633Z,22.30
2023-03-06T21:17:49.632Z,22.80
2023-03-06T21:20:17.749Z,24.75
2023-03-06T21:22:46.949Z,22.90
2023-03-06T21:25:14.913Z,24.15
2023-03-06T21:27:42.756Z,24.73
2023-03-06T21:30:11.970Z,22.88
2023-03-06T21:32:39.799Z,23.38
2023-03-06T21:35:08.214Z,22.90
2023-03-06T21:37:36.049Z,24.85
2023-03-06T21:40:06.738Z,23.40
2023-03-06T21:42:36.189Z,23.30
2023-03-06T21:45:04.512Z,24.13
2023-03-06T21:47:37.848Z,24.48
2023-03-06T21:50:06.468Z,23.77
2023-03-06T21:52:34.282Z,23.38
2023-03-06T21:55:02.209Z,26.23
2023-03-06T21:57:31.482Z,23.10
2023-03-06T21:59:59.326Z,24.17
2023-03-06T22:02:27.122Z,25.02
2023-03-06T22:04:55.243Z,24.35
2023-03-06T22:07:23.438Z,22.58
2023-03-06T22:09:53.670Z,28.48
2023-03-06T22:12:21.726Z,24.90
2023-03-06T22:14:51.833Z,22.08
2023-03-06T22:17:19.800Z,24.73
2023-03-06T22:19:49.446Z,26.40
2023-03-06T22:22:17.291Z,27.73
2023-03-06T22:24:45.153Z,25.50
2023-03-06T22:27:12.947Z,25.48
2023-03-06T22:29:40.773Z,25.55
2023-03-06T22:32:10.021Z,27.95
2023-03-06T22:34:38.188Z,28.13
2023-03-06T22:37:06.217Z,28.75
2023-03-06T22:39:34.138Z,26.23
2023-03-06T22:42:02.038Z,25.80
2023-03-06T22:44:29.859Z,24.85
2023-03-06T22:46:57.859Z,24.83
2023-03-06T22:49:27.296Z,31.33
2023-03-06T22:51:55.121Z,57.05
2023-03-06T22:54:22.981Z,61.80
2023-03-06T22:56:50.863Z,36.67
2023-03-06T22:59:18.691Z,25.45
2023-03-06T23:01:46.724Z,26.98
2023-03-06T23:04:14.643Z,23.95
2023-03-06T23:06:45.891Z,25.27
2023-03-06T23:09:15.916Z,27.40
2023-03-06T23:11:43.899Z,27.00
2023-03-06T23:14:13.110Z,28.17
2023-03-06T23:16:40.911Z,28.05
2023-03-06T23:19:08.799Z,31.25
2023-03-06T23:21:36.570Z,24.13
2023-03-06T23:24:06.904Z,27.83
2023-03-06T23:26:35.343Z,27.02
2023-03-06T23:29:04.216Z,25.85
2023-03-06T23:31:32.624Z,25.42
2023-03-06T23:34:02.348Z,27.95
2023-03-06T23:36:31.187Z,27.60
2023-03-06T23:39:00.210Z,29.40
2023-03-06T23:41:29.374Z,26.83
2023-03-06T23:43:57.251Z,25.75
2023-03-06T23:46:25.120Z,24.13
2023-03-06T23:48:53.245Z,23.02
2023-03-06T23:51:22.588Z,24.05
2023-03-06T23:53:55.882Z,23.95
2023-03-06T23:56:24.548Z,25.10
2023-03-06T23:58:54.338Z,23.90
